EST,Max TemperatureF,Mean TemperatureF,Min TemperatureF,Max Dew PointF,MeanDew PointF,Min DewpointF,Max Humidity, Mean Humidity, Min Humidity, Max Sea Level PressureIn, Mean Sea Level PressureIn, Min Sea Level PressureIn, Max VisibilityMiles, Mean VisibilityMiles, Min VisibilityMiles, Max Wind SpeedMPH, Mean Wind SpeedMPH, Max Gust SpeedMPH,PrecipitationIn, CloudCover, Events, WindDirDegrees
2013-1-1,30,20,10,25,11,0,93,61,34,29.83,29.69,29.58,10,10,10,22,10,34,0.00,1,,276
2013-1-2,19,11,3,1,-3,-9,79,55,38,29.99,29.87,29.81,10,10,10,22,12,32,0.00,0,,285
2013-1-3,19,10,0,5,-3,-9,73,59,42,30.06,30.00,29.93,10,10,10,15,6,18,0.00,1,,292
2013-1-4,33,17,1,25,16,-8,100,75,60,29.92,29.78,29.70,10,10,10,17,6,24,0.00,2,,253
2013-1-5,33,22,12,25,14,3,93,58,37,30.26,30.00,29.70,10,10,10,22,10,33,0.00,1,,284
2013-1-6,33,20,8,34,20,1,100,87,67,30.23,30.02,29.90,10,9,1,14,2,18,0.00,2,,305
2013-1-7,33,20,8,27,13,1,100,76,46,30.40,30.24,29.95,10,10,6,13,8,21,0.00,5,,20
2013-1-8,39,31,23,30,24,16,93,70,49,30.34,30.25,30.17,10,10,10,23,11,37,0.00,1,,250
2013-1-9,42,30,17,37,27,14,100,82,66,30.40,30.18,29.85,10,10,7,17,3,22,0.00,2,,222
2013-1-10,44,37,30,28,24,18,81,56,42,30.50,30.17,29.85,10,10,10,28,14,39,0.01,0,,300
2013-1-11,37,30,24,28,20,14,87,65,52,30.52,30.41,30.27,10,10,10,12,4,17,0.00,1,,11
2013-1-12,44,40,37,41,37,30,100,85,70,30.27,30.17,30.11,10,9,0,9,6,,0.00,8,,164
2013-1-13,48,42,39,46,42,37,100,98,93,30.14,30.06,29.94,10,1,0,12,6,16,0.00,8,,229
2013-1-14,53,45,37,48,39,23,100,79,40,30.18,29.98,29.84,10,8,0,16,9,22,0.00,4,,268
2013-1-15,37,32,26,28,23,18,93,69,52,30.31,30.25,30.18,10,10,10,9,3,,0.00,4,,14
2013-1-16,39,34,30,39,29,16,100,85,48,30.27,29.99,29.74,10,6,1,14,8,17,0.52,8,,75
2013-1-17,39,27,14,36,19,-6,100,68,36,30.12,29.90,29.74,10,10,10,18,10,28,0.01,2,,282
2013-1-18,15,10,6,9,-7,-11,92,45,32,30.39,30.26,30.09,10,10,10,14,7,23,0.00,1,,312
2013-1-19,39,24,10,28,23,3,93,74,60,30.36,30.07,29.88,10,9,1,20,6,32,0.00,4,,248
2013-1-20,48,37,24,37,28,7,93,62,34,29.87,29.62,29.43,10,10,10,24,11,39,0.00,1,,236
2013-1-21,24,19,14,18,1,-6,93,47,28,30.03,29.94,29.81,10,9,2,23,12,32,0.00,2,,293
2013-1-22,19,14,8,16,4,-15,86,67,34,29.98,29.84,29.74,10,8,1,20,9,26,0.00,3,,348
2013-1-23,8,4,0,-11,-16,-18,51,43,33,30.04,30.00,29.98,10,10,10,25,13,30,0.00,0,,288
2013-1-24,10,4,-2,-9,-13,-18,60,46,31,30.05,29.96,29.87,10,10,10,22,12,36,0.00,0,,287
2013-1-25,19,10,1,1,-4,-11,72,53,35,30.16,30.10,30.04,10,10,10,20,11,26,0.00,0,,288
2013-1-26,19,14,10,5,-6,-9,67,41,28,30.07,30.01,29.94,10,10,10,14,6,22,0.00,1,,333
2013-1-27,23,16,8,1,-1,-6,67,49,36,30.39,30.25,30.08,10,10,10,17,9,30,0.00,0,,304
2013-1-28,26,16,6,23,6,-6,100,62,28,30.40,30.27,30.06,10,8,2,10,3,,0.00,2,,252
2013-1-29,37,27,17,34,25,16,100,87,70,30.21,30.15,30.06,10,10,9,9,3,,0.03,5,,352
2013-1-30,51,45,39,52,44,34,100,97,81,30.16,29.79,29.45,10,5,1,20,12,34,0.17,8,,195
2013-1-31,53,42,30,54,37,10,100,74,41,29.45,29.17,28.84,10,7,2,26,19,45,0.10,5,,221